Falmouth, Michigan
Current Conditions -  °F | °C
As of 2:14 PM on Monday 20 Oct 2014 (Local Time) from KCAD Reporting Station
Overcast Overcast  
Wind Chill: 51°   Ceiling: 1600
Heat Index: 51°   Visibility: 10mi
Dew Point: 47°   Wind: 9mph
Humidity: 86%   Direction: 340°NNW
Pressure: 29.78"   Gusts: NA
Location:  44.24°N, 85.09°W
Report Text: KCAD 201814Z AUTO 34008KT 10SM BKN016 OVC022 10/08 A2978 RMK AO2 T01040081
Loading
Personal Weather Stations






























Interactive Weather Map
Tropical Storm Tracking
New forecast layout! Learn more

10-Day Weather Forecast

Advertisements
Track Severe Weather on mobile